Time;durP1;ratioP1;P1;durP2;ratioP2;P2;SDS_P1;SDS_P2;PMS_P1;PMS_P2;Temp;Humidity;BMP_temperature;BMP_pressure;BME280_temperature;BME280_humidity;BME280_pressure;Samples;Min_cycle;Max_cycle;Signal;HPM_P1;HPM_P2
2022/10/30 00:01:37;;;;;;;;;;;11.60;99.90;;;;;;5065556;28;19924;-75
2022/10/30 00:04:04;;;;;;;;;;;11.60;99.90;;;;;;5051822;28;19954;-76
2022/10/30 00:06:35;;;;;;;;;;;11.50;99.90;;;;;;5069806;28;19955;-76
2022/10/30 00:09:02;;;;;;;;;;;11.50;99.90;;;;;;5060335;28;19964;-77
2022/10/30 00:11:34;;;;;;;;;;;11.50;99.90;;;;;;5069787;28;20296;-77
2022/10/30 00:14:06;;;;;;;;;;;11.50;99.90;;;;;;5068220;28;19955;-76
2022/10/30 00:16:37;;;;;;;;;;;11.40;99.90;;;;;;5069200;28;19924;-75
2022/10/30 00:19:09;;;;;;;;;;;11.50;99.90;;;;;;5068408;28;20071;-77
2022/10/30 00:21:35;;;;;;;;;;;11.40;99.90;;;;;;5060895;28;19932;-76
2022/10/30 00:24:02;;;;;;;;;;;11.40;99.90;;;;;;5064967;28;20457;-74
2022/10/30 00:26:34;;;;;;;;;;;11.40;99.90;;;;;;5067444;28;19924;-74
2022/10/30 00:29:05;;;;;;;;;;;11.30;99.90;;;;;;5078788;28;19947;-76
2022/10/30 00:31:33;;;;;;;;;;;11.40;99.90;;;;;;5066733;28;19928;-74
2022/10/30 00:34:05;;;;;;;;;;;11.30;99.90;;;;;;5069205;28;20019;-74
2022/10/30 00:36:37;;;;;;;;;;;11.30;99.90;;;;;;5067210;28;19928;-76
2022/10/30 00:39:08;;;;;;;;;;;11.30;99.90;;;;;;5063648;28;20002;-76
2022/10/30 00:41:38;;;;;;;;;;;11.30;99.90;;;;;;5062747;28;20382;-80
2022/10/30 00:44:29;;;;;;;;;;;11.20;99.90;;;;;;5053963;28;20329;-76
2022/10/30 00:47:03;;;;;;;;;;;11.20;99.90;;;;;;5057741;28;19936;-76
2022/10/30 00:49:37;;;;;;;;;;;11.20;99.90;;;;;;5038311;28;20369;-76
2022/10/30 00:52:05;;;;;;;;;;;11.20;99.90;;;;;;5065547;28;19928;-76
2022/10/30 00:54:37;;;;;;;;;;;11.20;99.90;;;;;;5069843;28;19925;-74
2022/10/30 00:57:05;;;;;;;;;;;11.20;99.90;;;;;;5052910;28;19932;-78
2022/10/30 00:59:37;;;;;;;;;;;11.20;99.90;;;;;;5069816;28;19924;-75
2022/10/30 01:02:08;;;;;;;;;;;11.20;99.90;;;;;;5052158;28;19950;-75
2022/10/30 01:04:41;;;;;;;;;;;11.10;99.90;;;;;;5085437;28;20008;-77
2022/10/30 01:07:15;;;;;;;;;;;11.10;99.90;;;;;;5058307;28;19929;-75
2022/10/30 01:09:44;;;;;;;;;;;11.10;99.90;;;;;;5052828;28;19932;-76
2022/10/30 01:12:15;;;;;;;;;;;11.00;99.90;;;;;;5065118;28;20361;-75
2022/10/30 01:14:44;;;;;;;;;;;11.00;99.90;;;;;;5069352;28;19928;-75
2022/10/30 01:17:24;;;;;;;;;;;10.90;99.90;;;;;;5069273;28;20036;-76
2022/10/30 01:20:07;;;;;;;;;;;10.90;99.90;;;;;;5049495;28;20005;-76
2022/10/30 01:22:39;;;;;;;;;;;10.90;99.90;;;;;;5068236;28;19935;-76
2022/10/30 01:25:20;;;;;;;;;;;10.90;99.90;;;;;;5046390;28;19972;-75
2022/10/30 01:28:17;;;;;;;;;;;10.80;99.90;;;;;;5052816;28;19931;-75
2022/10/30 01:30:44;;;;;;;;;;;10.80;99.90;;;;;;5066793;28;19974;-76
2022/10/30 01:33:38;;;;;;;;;;;10.80;99.90;;;;;;5067909;28;19924;-77
2022/10/30 01:36:12;;;;;;;;;;;10.80;99.90;;;;;;5050052;28;20383;-75
2022/10/30 01:38:48;;;;;;;;;;;10.80;99.90;;;;;;5068657;28;19924;-76
2022/10/30 01:41:19;;;;;;;;;;;10.80;99.90;;;;;;5048476;28;19939;-76
2022/10/30 01:43:48;;;;;;;;;;;10.80;99.90;;;;;;5051604;28;19924;-78
2022/10/30 01:46:21;;;;;;;;;;;10.80;99.90;;;;;;5051039;28;19925;-77
2022/10/30 01:48:53;;;;;;;;;;;10.70;99.90;;;;;;5069049;28;19928;-76
2022/10/30 01:51:38;;;;;;;;;;;10.70;99.90;;;;;;5042190;28;19925;-76
2022/10/30 01:54:18;;;;;;;;;;;10.70;99.90;;;;;;5050899;28;19978;-76
2022/10/30 01:57:08;;;;;;;;;;;10.70;99.90;;;;;;5068669;28;19924;-78
2022/10/30 01:59:58;;;;;;;;;;;10.70;99.90;;;;;;5067315;28;20371;-78
2022/10/30 02:02:38;;;;;;;;;;;10.60;99.90;;;;;;5057710;28;19929;-76
2022/10/30 02:05:15;;;;;;;;;;;10.60;99.90;;;;;;5064493;28;19933;-77
2022/10/30 02:07:47;;;;;;;;;;;10.60;99.90;;;;;;5068197;28;19925;-76
2022/10/30 02:10:13;;;;;;;;;;;10.60;99.90;;;;;;5057364;28;19928;-77
2022/10/30 02:12:45;;;;;;;;;;;10.50;99.90;;;;;;5066855;28;19925;-79
2022/10/30 02:15:17;;;;;;;;;;;10.50;99.90;;;;;;5052271;28;19928;-76
2022/10/30 02:17:49;;;;;;;;;;;10.50;99.90;;;;;;5054977;28;20011;-76
2022/10/30 02:20:17;;;;;;;;;;;10.50;99.90;;;;;;5068443;28;19925;-77
2022/10/30 02:22:50;;;;;;;;;;;10.50;99.90;;;;;;5066944;28;19928;-77
2022/10/30 02:25:17;;;;;;;;;;;10.50;99.90;;;;;;5068253;28;19929;-77
2022/10/30 02:27:49;;;;;;;;;;;10.50;99.90;;;;;;5068894;28;19977;-78
2022/10/30 02:30:15;;;;;;;;;;;10.50;99.90;;;;;;5067925;28;19932;-76
2022/10/30 02:32:47;;;;;;;;;;;10.50;99.90;;;;;;5066713;28;20018;-75
2022/10/30 02:35:19;;;;;;;;;;;10.50;99.90;;;;;;5068855;28;19931;-77
2022/10/30 02:37:51;;;;;;;;;;;10.50;99.90;;;;;;5051344;28;19924;-76
2022/10/30 02:40:17;;;;;;;;;;;10.50;99.90;;;;;;5068145;28;20371;-78
2022/10/30 02:42:53;;;;;;;;;;;10.60;99.90;;;;;;5063416;28;19930;-77
2022/10/30 02:45:20;;;;;;;;;;;10.70;99.90;;;;;;5058302;28;19932;-77
2022/10/30 02:47:51;;;;;;;;;;;10.70;99.90;;;;;;5052367;28;19925;-76
2022/10/30 02:50:26;;;;;;;;;;;10.90;99.90;;;;;;5067799;28;19929;-75
2022/10/30 02:52:52;;;;;;;;;;;10.90;99.90;;;;;;5066703;28;19925;-76
2022/10/30 02:55:24;;;;;;;;;;;10.80;99.90;;;;;;5051736;28;19933;-76
2022/10/30 02:57:55;;;;;;;;;;;10.80;99.90;;;;;;5053184;28;19929;-77
2022/10/30 03:00:22;;;;;;;;;;;10.50;99.90;;;;;;5061629;28;19924;-75
2022/10/30 03:02:55;;;;;;;;;;;10.40;99.90;;;;;;5082442;28;20708;-76
2022/10/30 03:05:26;;;;;;;;;;;10.20;99.90;;;;;;5051476;28;19924;-75
2022/10/30 03:07:58;;;;;;;;;;;10.10;99.90;;;;;;5067824;28;20483;-74
2022/10/30 03:10:29;;;;;;;;;;;10.10;99.90;;;;;;5070059;28;20428;-74
2022/10/30 03:13:01;;;;;;;;;;;10.00;99.90;;;;;;5047595;28;19925;-74
2022/10/30 03:15:33;;;;;;;;;;;10.00;99.90;;;;;;5055409;28;19925;-75
2022/10/30 03:17:59;;;;;;;;;;;10.00;99.90;;;;;;5062833;28;19928;-75
2022/10/30 03:20:31;;;;;;;;;;;9.90;99.90;;;;;;5071379;28;19932;-75
2022/10/30 03:23:02;;;;;;;;;;;9.90;99.90;;;;;;5054120;28;19928;-76
2022/10/30 03:25:34;;;;;;;;;;;9.90;99.90;;;;;;5072151;28;20325;-74
2022/10/30 03:28:05;;;;;;;;;;;9.80;99.90;;;;;;5071090;28;20081;-75
2022/10/30 03:30:32;;;;;;;;;;;9.80;99.90;;;;;;5070858;28;20382;-75
2022/10/30 03:33:04;;;;;;;;;;;9.80;99.90;;;;;;5065935;28;19935;-75
2022/10/30 03:35:30;;;;;;;;;;;9.80;99.90;;;;;;5054318;28;19932;-75
2022/10/30 03:38:02;;;;;;;;;;;9.80;99.90;;;;;;5051285;28;19931;-74
2022/10/30 03:40:34;;;;;;;;;;;9.80;99.90;;;;;;5069075;28;20341;-76
2022/10/30 03:43:06;;;;;;;;;;;9.80;99.90;;;;;;5074291;28;19925;-73
2022/10/30 03:45:33;;;;;;;;;;;9.70;99.90;;;;;;5070441;28;19925;-77
2022/10/30 03:48:05;;;;;;;;;;;9.70;99.90;;;;;;5070452;28;20349;-76
2022/10/30 03:50:32;;;;;;;;;;;9.70;99.90;;;;;;5070468;28;19946;-75
2022/10/30 03:53:03;;;;;;;;;;;9.60;99.90;;;;;;5064349;28;19982;-77
2022/10/30 03:55:35;;;;;;;;;;;9.60;99.90;;;;;;5070579;28;19929;-75
2022/10/30 03:58:07;;;;;;;;;;;9.60;99.90;;;;;;5070320;28;19924;-77
2022/10/30 04:00:39;;;;;;;;;;;9.60;99.90;;;;;;5071860;28;19947;-76
2022/10/30 04:03:11;;;;;;;;;;;9.60;99.90;;;;;;5068925;28;19924;-76
2022/10/30 04:05:43;;;;;;;;;;;9.50;99.90;;;;;;5050322;28;19931;-76
2022/10/30 04:08:15;;;;;;;;;;;9.50;99.90;;;;;;5070166;28;19928;-76
2022/10/30 04:10:46;;;;;;;;;;;9.50;99.90;;;;;;5054290;28;20036;-75
2022/10/30 04:13:14;;;;;;;;;;;9.50;99.90;;;;;;5052450;28;19929;-75
2022/10/30 04:15:50;;;;;;;;;;;9.50;99.90;;;;;;5046958;28;19925;-77
2022/10/30 04:18:22;;;;;;;;;;;9.50;99.90;;;;;;5066270;28;19924;-76
2022/10/30 04:20:49;;;;;;;;;;;9.60;99.90;;;;;;5049691;28;19924;-77
2022/10/30 04:23:20;;;;;;;;;;;9.60;99.90;;;;;;5047431;28;20011;-78
2022/10/30 04:25:53;;;;;;;;;;;9.60;99.90;;;;;;5054517;28;19931;-75
2022/10/30 04:28:24;;;;;;;;;;;9.60;99.90;;;;;;5071009;28;20541;-76
2022/10/30 04:30:56;;;;;;;;;;;9.60;99.90;;;;;;5071021;28;19924;-77
2022/10/30 04:33:24;;;;;;;;;;;9.60;99.90;;;;;;5060865;28;19967;-76
2022/10/30 04:35:58;;;;;;;;;;;9.60;99.90;;;;;;5066538;28;19924;-77
2022/10/30 04:38:30;;;;;;;;;;;9.60;99.90;;;;;;5069848;28;19928;-76
2022/10/30 04:40:57;;;;;;;;;;;9.70;99.90;;;;;;5053588;28;20293;-76
2022/10/30 04:43:47;;;;;;;;;;;9.70;99.90;;;;;;5070318;28;20019;-77
2022/10/30 04:46:18;;;;;;;;;;;9.60;99.90;;;;;;5047809;28;19932;-77
2022/10/30 04:48:53;;;;;;;;;;;9.60;99.90;;;;;;5068093;28;19956;-76
2022/10/30 04:51:24;;;;;;;;;;;9.50;99.90;;;;;;5055887;28;20326;-78
2022/10/30 04:53:52;;;;;;;;;;;9.50;99.90;;;;;;5069319;28;19982;-77
2022/10/30 04:56:26;;;;;;;;;;;9.50;99.90;;;;;;5051981;28;19936;-76
2022/10/30 04:58:58;;;;;;;;;;;9.50;99.90;;;;;;5049803;28;19928;-76
2022/10/30 05:01:25;;;;;;;;;;;9.50;99.90;;;;;;5059048;28;19931;-75
2022/10/30 05:03:57;;;;;;;;;;;9.50;99.90;;;;;;5057228;28;19978;-76
2022/10/30 05:06:26;;;;;;;;;;;9.60;99.90;;;;;;5059103;28;19939;-77
2022/10/30 05:08:58;;;;;;;;;;;9.60;99.90;;;;;;5054043;28;20042;-76
2022/10/30 05:11:36;;;;;;;;;;;9.60;99.90;;;;;;5050220;28;19924;-77
2022/10/30 05:14:08;;;;;;;;;;;9.50;99.90;;;;;;5081323;28;19971;-77
2022/10/30 05:16:42;;;;;;;;;;;9.40;99.90;;;;;;5069233;28;19928;-76
2022/10/30 05:19:14;;;;;;;;;;;9.30;99.90;;;;;;5069514;28;20352;-76
2022/10/30 05:21:46;;;;;;;;;;;9.20;99.90;;;;;;5068222;28;19929;-76
2022/10/30 05:24:13;;;;;;;;;;;9.10;99.90;;;;;;5069039;28;20374;-77
2022/10/30 05:26:42;;;;;;;;;;;9.00;99.90;;;;;;5069013;28;20318;-76
2022/10/30 05:29:15;;;;;;;;;;;9.00;99.90;;;;;;5053460;28;19928;-77
2022/10/30 05:31:46;;;;;;;;;;;9.00;99.90;;;;;;5068262;28;19941;-77
2022/10/30 05:34:35;;;;;;;;;;;9.00;99.90;;;;;;5066260;28;19924;-77
2022/10/30 05:37:06;;;;;;;;;;;9.00;99.90;;;;;;5074823;28;19932;-77
2022/10/30 05:39:40;;;;;;;;;;;9.00;99.90;;;;;;5080692;28;20681;-76
2022/10/30 05:42:22;;;;;;;;;;;9.00;99.90;;;;;;5051087;28;19925;-75
2022/10/30 05:44:56;;;;;;;;;;;9.00;99.90;;;;;;5075582;28;20448;-77
2022/10/30 05:47:30;;;;;;;;;;;9.00;99.90;;;;;;5068882;28;19928;-77
2022/10/30 05:50:03;;;;;;;;;;;9.10;99.90;;;;;;5071019;28;20343;-77
2022/10/30 05:52:35;;;;;;;;;;;9.00;99.90;;;;;;5047210;28;19986;-77
2022/10/30 05:55:07;;;;;;;;;;;9.00;99.90;;;;;;5053140;28;19924;-76
2022/10/30 05:57:46;;;;;;;;;;;9.10;99.90;;;;;;5074491;28;20015;-77
2022/10/30 06:00:18;;;;;;;;;;;9.10;99.90;;;;;;5066369;28;20295;-76
2022/10/30 06:02:50;;;;;;;;;;;9.00;99.90;;;;;;5046985;28;19940;-81
2022/10/30 06:05:21;;;;;;;;;;;9.10;99.90;;;;;;5070211;28;19928;-76
2022/10/30 06:07:48;;;;;;;;;;;9.00;99.90;;;;;;5052827;28;19931;-77
2022/10/30 06:10:20;;;;;;;;;;;9.00;99.90;;;;;;5053764;28;19931;-76
2022/10/30 06:13:05;;;;;;;;;;;9.00;99.90;;;;;;5065429;28;19925;-76
2022/10/30 06:15:53;;;;;;;;;;;9.10;99.90;;;;;;5046472;28;19925;-77
2022/10/30 06:18:20;;;;;;;;;;;9.10;99.90;;;;;;5054327;28;19931;-75
2022/10/30 06:20:53;;;;;;;;;;;9.10;99.90;;;;;;5065130;28;19924;-75
2022/10/30 06:23:35;;;;;;;;;;;9.10;99.90;;;;;;5053816;28;19928;-77
2022/10/30 06:26:16;;;;;;;;;;;9.10;99.90;;;;;;5052920;28;19928;-75
2022/10/30 06:28:48;;;;;;;;;;;9.10;99.90;;;;;;5065261;28;20359;-75
2022/10/30 06:31:20;;;;;;;;;;;9.10;99.90;;;;;;5066164;28;19925;-78
2022/10/30 06:33:51;;;;;;;;;;;9.20;99.90;;;;;;5065583;28;19928;-75
2022/10/30 06:36:23;;;;;;;;;;;9.20;99.90;;;;;;5067020;28;19924;-76
2022/10/30 06:38:56;;;;;;;;;;;9.20;99.90;;;;;;5066826;28;19925;-75
2022/10/30 06:41:36;;;;;;;;;;;9.30;99.90;;;;;;5051256;28;19932;-74
2022/10/30 06:44:38;;;;;;;;;;;9.30;99.90;;;;;;5068138;28;19964;-74
2022/10/30 06:47:04;;;;;;;;;;;9.30;99.90;;;;;;5070375;28;19931;-75
2022/10/30 06:49:31;;;;;;;;;;;9.40;99.90;;;;;;5050213;28;19940;-77
2022/10/30 06:52:03;;;;;;;;;;;9.40;99.90;;;;;;5067429;28;19924;-74
2022/10/30 06:54:35;;;;;;;;;;;9.40;99.90;;;;;;5054099;28;19925;-77
2022/10/30 06:57:20;;;;;;;;;;;9.30;99.90;;;;;;5070358;28;19947;-76
2022/10/30 07:00:23;;;;;;;;;;;9.30;99.90;;;;;;5052485;28;19928;-77
2022/10/30 07:03:14;;;;;;;;;;;9.20;99.90;;;;;;5067458;28;19932;-75
2022/10/30 07:05:46;;;;;;;;;;;9.20;99.90;;;;;;5070213;28;19935;-76
2022/10/30 07:08:17;;;;;;;;;;;9.20;99.90;;;;;;5061450;28;19931;-74
2022/10/30 07:10:49;;;;;;;;;;;9.30;99.90;;;;;;5054590;28;19966;-76
2022/10/30 07:13:18;;;;;;;;;;;9.30;99.90;;;;;;5070488;28;19954;-74
2022/10/30 07:15:51;;;;;;;;;;;9.30;99.90;;;;;;5064192;28;19928;-74
2022/10/30 07:18:27;;;;;;;;;;;9.40;99.90;;;;;;5065177;28;19939;-75
2022/10/30 07:21:00;;;;;;;;;;;9.40;99.90;;;;;;5054417;28;19925;-75
2022/10/30 07:23:32;;;;;;;;;;;9.50;99.90;;;;;;5068155;28;19964;-76
2022/10/30 07:26:27;;;;;;;;;;;9.50;99.90;;;;;;5066647;28;20401;-75
2022/10/30 07:29:05;;;;;;;;;;;9.60;99.90;;;;;;5072426;28;19935;-76
2022/10/30 07:31:42;;;;;;;;;;;9.60;99.90;;;;;;5069660;28;19971;-75
2022/10/30 07:34:29;;;;;;;;;;;9.70;99.90;;;;;;5060678;28;19931;-76
2022/10/30 07:37:21;;;;;;;;;;;9.70;99.90;;;;;;5055842;28;19924;-77
2022/10/30 07:39:57;;;;;;;;;;;9.80;99.90;;;;;;5052456;28;19955;-77
2022/10/30 07:42:43;;;;;;;;;;;9.80;99.90;;;;;;5057974;28;19931;-74
2022/10/30 07:45:30;;;;;;;;;;;9.90;99.90;;;;;;5066109;28;19924;-74
2022/10/30 07:48:20;;;;;;;;;;;10.00;99.90;;;;;;5052579;28;19932;-74
2022/10/30 07:51:18;;;;;;;;;;;10.00;99.90;;;;;;5049846;28;19925;-74
2022/10/30 07:53:45;;;;;;;;;;;10.10;99.90;;;;;;5045878;28;19931;-74
2022/10/30 07:56:12;;;;;;;;;;;10.20;99.90;;;;;;5046705;28;19977;-76
2022/10/30 07:58:50;;;;;;;;;;;10.30;99.90;;;;;;5073008;28;20449;-74
2022/10/30 08:01:55;;;;;;;;;;;10.40;99.90;;;;;;5068940;28;19928;-76
2022/10/30 08:04:33;;;;;;;;;;;10.40;99.90;;;;;;5046160;28;19987;-76
2022/10/30 08:07:11;;;;;;;;;;;10.50;99.90;;;;;;5042308;28;20288;-77
2022/10/30 08:09:43;;;;;;;;;;;10.60;99.90;;;;;;5051356;28;20472;-79
2022/10/30 08:12:09;;;;;;;;;;;10.70;99.90;;;;;;5061930;28;20338;-76
2022/10/30 08:14:41;;;;;;;;;;;10.70;99.90;;;;;;5071168;28;20291;-75
2022/10/30 08:17:09;;;;;;;;;;;10.80;99.90;;;;;;5063332;28;19924;-75
2022/10/30 08:19:41;;;;;;;;;;;10.90;99.90;;;;;;5050964;28;19933;-79
2022/10/30 08:22:09;;;;;;;;;;;11.00;99.90;;;;;;5052223;28;19929;-80
2022/10/30 08:24:36;;;;;;;;;;;11.10;99.90;;;;;;5069633;28;19928;-77
2022/10/30 08:27:02;;;;;;;;;;;11.20;99.90;;;;;;5070899;28;19925;-77
2022/10/30 08:29:29;;;;;;;;;;;11.30;99.90;;;;;;5067653;28;19930;-77
2022/10/30 08:32:01;;;;;;;;;;;11.40;99.90;;;;;;5068453;28;19967;-77
2022/10/30 08:34:59;;;;;;;;;;;11.50;99.90;;;;;;5070011;28;19924;-76
2022/10/30 08:37:27;;;;;;;;;;;11.50;99.90;;;;;;5045062;28;19982;-78
2022/10/30 08:39:54;;;;;;;;;;;11.60;99.90;;;;;;5047793;28;19924;-79
2022/10/30 08:42:48;;;;;;;;;;;11.70;99.90;;;;;;5067765;28;19959;-78
2022/10/30 08:45:23;;;;;;;;;;;11.80;99.90;;;;;;5050566;28;19974;-78
2022/10/30 08:48:00;;;;;;;;;;;12.00;99.90;;;;;;5051010;28;19932;-77
2022/10/30 08:50:27;;;;;;;;;;;12.00;99.90;;;;;;5055093;28;19931;-77
2022/10/30 08:52:54;;;;;;;;;;;12.10;99.90;;;;;;5048841;28;19955;-78
2022/10/30 08:55:21;;;;;;;;;;;12.20;99.90;;;;;;5046995;28;19932;-78
2022/10/30 08:57:48;;;;;;;;;;;12.30;99.90;;;;;;5063197;28;19947;-78
2022/10/30 09:00:20;;;;;;;;;;;12.40;99.90;;;;;;5050805;28;19932;-78
2022/10/30 09:03:10;;;;;;;;;;;12.40;99.90;;;;;;5068923;28;19931;-76
2022/10/30 09:06:08;;;;;;;;;;;12.50;99.90;;;;;;5069180;28;19939;-75
2022/10/30 09:08:44;;;;;;;;;;;12.60;99.90;;;;;;5056453;28;19925;-77
2022/10/30 09:11:36;;;;;;;;;;;12.70;99.90;;;;;;5057083;28;19932;-76
2022/10/30 09:14:03;;;;;;;;;;;12.80;99.90;;;;;;5070572;28;19928;-77
2022/10/30 09:16:34;;;;;;;;;;;12.90;99.90;;;;;;5070227;28;19928;-75
2022/10/30 09:19:08;;;;;;;;;;;13.00;99.90;;;;;;5078519;28;19931;-77
2022/10/30 09:21:39;;;;;;;;;;;13.10;99.90;;;;;;5053025;28;19939;-77
2022/10/30 09:24:11;;;;;;;;;;;13.20;99.90;;;;;;5038462;28;19924;-77
2022/10/30 09:27:06;;;;;;;;;;;13.30;99.90;;;;;;5059062;28;19936;-79
2022/10/30 09:29:43;;;;;;;;;;;13.40;99.90;;;;;;5087648;28;19935;-76
2022/10/30 09:32:20;;;;;;;;;;;13.50;99.90;;;;;;5068094;28;19925;-77
2022/10/30 09:34:59;;;;;;;;;;;13.60;99.90;;;;;;5070222;28;19974;-76
2022/10/30 09:37:36;;;;;;;;;;;13.70;99.90;;;;;;5053472;28;20352;-75
2022/10/30 09:40:22;;;;;;;;;;;13.80;99.90;;;;;;5055991;28;20281;-75
2022/10/30 09:42:50;;;;;;;;;;;13.90;99.90;;;;;;5052492;28;19925;-75
2022/10/30 09:45:20;;;;;;;;;;;14.00;99.90;;;;;;5053899;28;20408;-76
2022/10/30 09:48:09;;;;;;;;;;;14.10;99.90;;;;;;5058914;28;20410;-75
2022/10/30 09:51:04;;;;;;;;;;;14.20;99.90;;;;;;5052706;28;19928;-77
2022/10/30 09:53:37;;;;;;;;;;;14.40;99.90;;;;;;5063832;28;19933;-76
2022/10/30 09:56:21;;;;;;;;;;;14.50;99.90;;;;;;5054831;28;19925;-76
2022/10/30 09:58:48;;;;;;;;;;;14.50;99.90;;;;;;5061949;28;20013;-76
2022/10/30 10:01:29;;;;;;;;;;;14.70;99.90;;;;;;5044983;28;20321;-78
2022/10/30 10:04:00;;;;;;;;;;;14.80;99.90;;;;;;5054106;28;20383;-76
2022/10/30 10:06:43;;;;;;;;;;;14.90;99.90;;;;;;5070909;28;19925;-76
2022/10/30 10:09:30;;;;;;;;;;;14.90;99.90;;;;;;5066114;28;19995;-75
2022/10/30 10:12:37;;;;;;;;;;;15.00;99.90;;;;;;5065735;28;19932;-74
2022/10/30 10:15:09;;;;;;;;;;;15.10;99.90;;;;;;5051604;28;19931;-76
2022/10/30 10:17:39;;;;;;;;;;;15.20;99.90;;;;;;5068649;28;20338;-76
2022/10/30 10:20:13;;;;;;;;;;;15.40;99.90;;;;;;5072661;28;19924;-77
2022/10/30 10:22:48;;;;;;;;;;;15.50;99.90;;;;;;5069118;28;20283;-75
2022/10/30 10:25:20;;;;;;;;;;;15.60;99.90;;;;;;5043359;28;19971;-75
2022/10/30 10:28:01;;;;;;;;;;;15.70;99.90;;;;;;5081434;28;20360;-77
2022/10/30 10:30:43;;;;;;;;;;;15.90;99.90;;;;;;5065904;28;20401;-77
2022/10/30 10:33:14;;;;;;;;;;;16.00;99.90;;;;;;5069144;28;20382;-76
2022/10/30 10:36:00;;;;;;;;;;;16.20;99.90;;;;;;5055228;28;19928;-76
2022/10/30 10:38:43;;;;;;;;;;;16.40;99.90;;;;;;5053569;28;20350;-75
2022/10/30 10:41:30;;;;;;;;;;;16.50;99.90;;;;;;5057554;28;20390;-76
2022/10/30 10:44:15;;;;;;;;;;;16.60;99.90;;;;;;5086756;28;20409;-76
2022/10/30 10:47:14;;;;;;;;;;;16.70;99.90;;;;;;5054583;28;19941;-77
2022/10/30 10:49:55;;;;;;;;;;;16.90;99.90;;;;;;5066919;28;19924;-75
2022/10/30 10:52:32;;;;;;;;;;;17.00;99.90;;;;;;5066693;28;19974;-77
2022/10/30 10:55:01;;;;;;;;;;;17.10;99.90;;;;;;5052681;28;19928;-75
2022/10/30 10:57:30;;;;;;;;;;;17.20;99.90;;;;;;5063882;28;20298;-74
2022/10/30 11:00:01;;;;;;;;;;;17.30;99.90;;;;;;5066654;28;19940;-76
2022/10/30 11:02:40;;;;;;;;;;;17.40;99.90;;;;;;5062936;28;19928;-78
2022/10/30 11:05:11;;;;;;;;;;;17.40;99.90;;;;;;5055026;28;19975;-74
2022/10/30 11:07:47;;;;;;;;;;;17.50;99.90;;;;;;5055722;28;19932;-75
2022/10/30 11:10:15;;;;;;;;;;;17.60;99.90;;;;;;5069951;28;19954;-77
2022/10/30 11:12:42;;;;;;;;;;;17.70;99.90;;;;;;5050280;28;19924;-76
2022/10/30 11:15:22;;;;;;;;;;;17.80;99.90;;;;;;5072278;28;19925;-76
2022/10/30 11:18:01;;;;;;;;;;;17.90;99.90;;;;;;5056038;28;19995;-76
2022/10/30 11:20:32;;;;;;;;;;;18.00;99.90;;;;;;5052279;28;19924;-74
2022/10/30 11:22:58;;;;;;;;;;;18.10;99.90;;;;;;5066805;28;19924;-75
2022/10/30 11:25:34;;;;;;;;;;;18.20;99.90;;;;;;5064918;28;20350;-74
2022/10/30 11:28:03;;;;;;;;;;;18.30;99.90;;;;;;5065656;28;20007;-75
2022/10/30 11:30:34;;;;;;;;;;;18.40;99.90;;;;;;5053022;28;19928;-76
2022/10/30 11:33:22;;;;;;;;;;;18.50;99.90;;;;;;5070067;28;19932;-76
2022/10/30 11:35:53;;;;;;;;;;;18.60;99.90;;;;;;5074140;28;19966;-75
2022/10/30 11:38:25;;;;;;;;;;;18.70;99.90;;;;;;5063451;28;19974;-77
2022/10/30 11:40:59;;;;;;;;;;;18.80;99.90;;;;;;5058055;28;20264;-76
2022/10/30 11:43:31;;;;;;;;;;;18.90;99.90;;;;;;5070560;28;19978;-75
2022/10/30 11:45:57;;;;;;;;;;;19.00;99.90;;;;;;5061340;28;19925;-77
2022/10/30 11:48:31;;;;;;;;;;;19.10;99.90;;;;;;5066041;28;19924;-76
2022/10/30 11:51:03;;;;;;;;;;;19.20;99.90;;;;;;5065045;28;19925;-75
2022/10/30 11:53:33;;;;;;;;;;;19.30;99.90;;;;;;5070765;28;20524;-76
2022/10/30 11:56:15;;;;;;;;;;;19.40;99.90;;;;;;5053689;28;19932;-77
2022/10/30 11:58:47;;;;;;;;;;;19.50;99.90;;;;;;5052989;28;19929;-75
2022/10/30 12:01:27;;;;;;;;;;;19.60;99.90;;;;;;5051878;28;19940;-74
2022/10/30 12:04:12;;;;;;;;;;;19.70;99.90;;;;;;5069806;28;19925;-76
2022/10/30 12:06:43;;;;;;;;;;;19.70;99.90;;;;;;5071520;28;20409;-77
2022/10/30 12:09:19;;;;;;;;;;;19.80;99.90;;;;;;5068349;28;20345;-74
2022/10/30 12:11:45;;;;;;;;;;;19.90;99.90;;;;;;5066953;28;20436;-74
2022/10/30 12:14:21;;;;;;;;;;;19.90;99.90;;;;;;5069821;28;19929;-75
2022/10/30 12:16:56;;;;;;;;;;;20.10;99.90;;;;;;5068287;28;19924;-79
2022/10/30 12:19:24;;;;;;;;;;;20.10;99.90;;;;;;5067422;28;19974;-75
2022/10/30 12:21:55;;;;;;;;;;;20.20;99.90;;;;;;5067578;28;19924;-76
2022/10/30 12:24:30;;;;;;;;;;;20.20;99.90;;;;;;5067938;28;19936;-74
2022/10/30 12:27:03;;;;;;;;;;;20.30;99.90;;;;;;5069603;28;19931;-75
2022/10/30 12:29:45;;;;;;;;;;;20.40;99.90;;;;;;5048449;28;19937;-76
2022/10/30 12:32:18;;;;;;;;;;;20.50;99.90;;;;;;5067233;28;19931;-73
2022/10/30 12:34:59;;;;;;;;;;;20.60;99.90;;;;;;5059063;28;19924;-75
2022/10/30 12:37:28;;;;;;;;;;;20.70;99.90;;;;;;5067815;28;19930;-77
2022/10/30 12:40:03;;;;;;;;;;;20.80;99.90;;;;;;5070672;28;19970;-76
2022/10/30 12:42:36;;;;;;;;;;;20.90;99.90;;;;;;5065591;28;20775;-75
2022/10/30 12:45:12;;;;;;;;;;;21.00;99.90;;;;;;5068416;28;21570;-75
2022/10/30 12:48:10;;;;;;;;;;;21.00;99.90;;;;;;5064210;28;19924;-76
2022/10/30 12:50:44;;;;;;;;;;;21.00;99.90;;;;;;5039532;28;20310;-77
2022/10/30 12:53:19;;;;;;;;;;;21.10;99.90;;;;;;5055074;28;19924;-76
2022/10/30 12:55:54;;;;;;;;;;;21.00;99.90;;;;;;5059018;28;19939;-74
2022/10/30 12:58:21;;;;;;;;;;;21.10;99.90;;;;;;5069800;28;19928;-76
2022/10/30 13:01:08;;;;;;;;;;;21.00;99.90;;;;;;5065301;28;19978;-75
2022/10/30 13:03:49;;;;;;;;;;;21.10;99.90;;;;;;5064288;28;19924;-75
2022/10/30 13:06:25;;;;;;;;;;;21.10;99.90;;;;;;5060083;28;19925;-74
2022/10/30 13:08:56;;;;;;;;;;;21.10;99.90;;;;;;5055635;28;19925;-76
2022/10/30 13:11:41;;;;;;;;;;;21.10;99.90;;;;;;5062071;28;19932;-75
2022/10/30 13:14:12;;;;;;;;;;;21.20;99.90;;;;;;5060855;28;20386;-75
2022/10/30 13:16:43;;;;;;;;;;;21.20;99.90;;;;;;5069158;28;19951;-76
2022/10/30 13:19:15;;;;;;;;;;;21.30;99.90;;;;;;5044033;28;20452;-75
2022/10/30 13:21:49;;;;;;;;;;;21.30;99.90;;;;;;5060630;28;19932;-76
2022/10/30 13:24:25;;;;;;;;;;;21.30;99.90;;;;;;5078712;28;19932;-76
2022/10/30 13:26:54;;;;;;;;;;;21.40;99.90;;;;;;5063425;28;19954;-76
2022/10/30 13:29:32;;;;;;;;;;;21.40;99.90;;;;;;5056721;28;20292;-76
2022/10/30 13:32:17;;;;;;;;;;;21.40;99.90;;;;;;5058223;28;20394;-74
2022/10/30 13:35:09;;;;;;;;;;;21.40;99.90;;;;;;5065191;28;19984;-75
2022/10/30 13:37:43;;;;;;;;;;;21.50;99.90;;;;;;5061683;28;19932;-76
2022/10/30 13:40:25;;;;;;;;;;;21.50;99.90;;;;;;5063072;28;19924;-75
2022/10/30 13:43:05;;;;;;;;;;;21.50;99.90;;;;;;5058768;28;19928;-76
2022/10/30 13:45:54;;;;;;;;;;;21.50;99.90;;;;;;5044319;28;20144;-77
2022/10/30 13:48:39;;;;;;;;;;;21.50;99.90;;;;;;5050138;28;19928;-76
2022/10/30 13:51:14;;;;;;;;;;;21.40;99.90;;;;;;5059566;28;20358;-75
2022/10/30 13:53:48;;;;;;;;;;;21.40;99.90;;;;;;5060440;28;20456;-75
2022/10/30 13:56:16;;;;;;;;;;;21.40;99.90;;;;;;5061643;28;20218;-74
2022/10/30 13:58:58;;;;;;;;;;;21.30;99.90;;;;;;5061417;28;19967;-75
2022/10/30 14:01:38;;;;;;;;;;;21.30;99.90;;;;;;5057350;28;19931;-77
2022/10/30 14:04:11;;;;;;;;;;;21.20;99.90;;;;;;5046483;28;19974;-76
2022/10/30 14:06:44;;;;;;;;;;;21.10;99.90;;;;;;5061172;28;19932;-76
2022/10/30 14:09:34;;;;;;;;;;;21.00;99.90;;;;;;5052378;28;19924;-77
2022/10/30 14:12:24;;;;;;;;;;;21.00;99.90;;;;;;5063349;28;19974;-76
2022/10/30 14:15:02;;;;;;;;;;;20.90;99.90;;;;;;5059286;28;19928;-77
2022/10/30 14:17:29;;;;;;;;;;;20.80;99.90;;;;;;5075844;28;20008;-77
2022/10/30 14:20:03;;;;;;;;;;;20.70;99.90;;;;;;5050906;28;19947;-75
2022/10/30 14:22:31;;;;;;;;;;;20.60;99.90;;;;;;5061226;28;19933;-75
2022/10/30 14:25:11;;;;;;;;;;;20.60;99.90;;;;;;5064691;28;19925;-76
2022/10/30 14:27:53;;;;;;;;;;;20.50;99.90;;;;;;5064114;28;20505;-77
2022/10/30 14:30:26;;;;;;;;;;;20.40;99.90;;;;;;5071148;28;20608;-75
2022/10/30 14:32:52;;;;;;;;;;;20.30;99.90;;;;;;5055494;28;19924;-77
2022/10/30 14:35:26;;;;;;;;;;;20.30;99.90;;;;;;5061836;28;19956;-77
2022/10/30 14:37:54;;;;;;;;;;;20.20;99.90;;;;;;5060774;28;19929;-75
2022/10/30 14:40:33;;;;;;;;;;;20.10;99.90;;;;;;5062469;28;19929;-77
2022/10/30 14:43:28;;;;;;;;;;;20.00;99.90;;;;;;5060226;28;20323;-76
2022/10/30 14:45:57;;;;;;;;;;;19.90;99.90;;;;;;5031198;28;19924;-77
2022/10/30 14:48:39;;;;;;;;;;;19.80;99.90;;;;;;5064593;28;20492;-75
2022/10/30 14:51:15;;;;;;;;;;;19.70;99.90;;;;;;5062830;28;19924;-77
2022/10/30 14:53:59;;;;;;;;;;;19.50;99.90;;;;;;5058986;28;19978;-76
2022/10/30 14:56:39;;;;;;;;;;;19.40;99.90;;;;;;5050128;28;19928;-78
2022/10/30 14:59:11;;;;;;;;;;;19.20;99.90;;;;;;5061834;28;19925;-75
2022/10/30 15:01:44;;;;;;;;;;;19.10;99.90;;;;;;5059029;28;19955;-76
2022/10/30 15:04:15;;;;;;;;;;;19.00;99.90;;;;;;5063829;28;19929;-76
2022/10/30 15:07:00;;;;;;;;;;;18.90;99.90;;;;;;5047225;28;19925;-75